Claremont, Illinois
Current Conditions -  °F | °C
As of 9:55 AM on Friday 31 Oct 2014 (Local Time) from KOLY Reporting Station
Overcast Overcast  
Wind Chill: 31°   Ceiling: 3000
Heat Index: 41°   Visibility: 10mi
Dew Point: 32°   Wind: 23mph
Humidity: 70%   Direction: 330°NNW
Pressure: 30.14"   Gusts: 32mph
Location:  38.72°N, 87.97°W
Report Text: KOLY 311455Z AUTO 33020G28KT 10SM BKN030 OVC045 05/00 A3014 RMK AO2
Loading
Personal Weather Stations






























Interactive Weather Map
Tropical Storm Tracking
New forecast layout! Learn more

10-Day Weather Forecast

Advertisements
Track Severe Weather on mobile